createdAt,value
2019-03-10T00:03:23.451Z,13.50
2019-03-10T00:06:47.374Z,13.50
2019-03-10T00:10:11.688Z,13.70
2019-03-10T00:13:35.382Z,13.50
2019-03-10T00:16:59.658Z,13.50
2019-03-10T00:20:23.608Z,13.30
2019-03-10T00:23:47.420Z,13.30
2019-03-10T00:27:11.804Z,13.20
2019-03-10T00:30:35.797Z,13.10
2019-03-10T00:33:59.543Z,13.00
2019-03-10T00:37:23.311Z,12.90
2019-03-10T00:41:14.535Z,12.80
2019-03-10T00:45:00.784Z,12.70
2019-03-10T00:48:47.453Z,12.60
2019-03-10T00:52:14.887Z,12.50
2019-03-10T00:55:38.955Z,12.50
2019-03-10T00:59:03.538Z,12.40
2019-03-10T01:02:27.243Z,12.40
2019-03-10T01:05:51.189Z,12.40
2019-03-10T01:09:15.704Z,12.30
2019-03-10T01:12:39.675Z,12.30
2019-03-10T01:16:05.127Z,12.30
2019-03-10T01:19:29.595Z,12.20
2019-03-10T01:22:53.401Z,12.10
2019-03-10T01:26:17.248Z,12.10
2019-03-10T01:29:40.988Z,11.90
2019-03-10T01:33:25.899Z,11.80
2019-03-10T01:36:50.147Z,11.80
2019-03-10T01:40:14.276Z,11.70
2019-03-10T01:43:38.053Z,11.70
2019-03-10T01:47:02.518Z,11.70
2019-03-10T01:50:26.500Z,11.60
2019-03-10T01:53:50.235Z,11.60
2019-03-10T01:57:14.010Z,11.50
2019-03-10T02:00:37.926Z,11.50
2019-03-10T02:04:01.818Z,11.40
2019-03-10T02:07:26.730Z,11.40
2019-03-10T02:10:50.498Z,11.30
2019-03-10T02:14:14.278Z,11.30
2019-03-10T02:17:38.099Z,11.20
2019-03-10T02:21:01.822Z,10.90
2019-03-10T02:24:25.620Z,10.50
2019-03-10T02:27:49.482Z,10.10
2019-03-10T02:31:13.395Z,9.80
2019-03-10T02:34:37.139Z,9.70
2019-03-10T02:38:01.074Z,9.60
2019-03-10T02:41:25.019Z,9.50
2019-03-10T02:44:48.786Z,9.40
2019-03-10T02:48:13.034Z,9.30
2019-03-10T02:51:36.854Z,9.30
2019-03-10T02:55:00.639Z,9.20
2019-03-10T02:58:24.351Z,9.20
2019-03-10T03:01:48.330Z,9.20
2019-03-10T03:05:12.616Z,9.10
2019-03-10T03:08:36.644Z,9.10
2019-03-10T03:12:00.421Z,8.90
2019-03-10T03:15:24.261Z,8.80
2019-03-10T03:18:48.316Z,8.60
2019-03-10T03:22:12.227Z,8.40
2019-03-10T03:25:36.591Z,8.30
2019-03-10T03:29:00.399Z,8.30
2019-03-10T03:32:24.351Z,8.20
2019-03-10T03:35:55.541Z,8.00
2019-03-10T03:39:28.223Z,7.70
2019-03-10T03:42:53.030Z,7.60
2019-03-10T03:46:16.714Z,7.40
2019-03-10T03:49:40.957Z,7.40
2019-03-10T03:53:05.355Z,7.30
2019-03-10T03:56:29.368Z,7.30
2019-03-10T03:59:53.268Z,7.30
2019-03-10T04:03:17.103Z,7.20
2019-03-10T04:06:40.895Z,7.50
2019-03-10T04:10:06.876Z,7.90
2019-03-10T04:13:30.788Z,7.70
2019-03-10T04:16:54.859Z,7.40
2019-03-10T04:20:18.657Z,7.20
2019-03-10T04:23:42.675Z,6.90
2019-03-10T04:27:06.356Z,6.80
2019-03-10T04:30:30.806Z,6.60
2019-03-10T04:33:54.570Z,6.50
2019-03-10T04:37:18.328Z,6.40
2019-03-10T04:40:42.281Z,6.20
2019-03-10T04:44:06.133Z,5.90
2019-03-10T04:47:30.098Z,5.70
2019-03-10T04:50:53.867Z,5.50
2019-03-10T04:54:20.115Z,5.30
2019-03-10T04:58:00.651Z,5.20
2019-03-10T05:01:24.502Z,5.00
2019-03-10T05:04:48.242Z,4.80
2019-03-10T05:08:12.056Z,4.70
2019-03-10T05:11:35.791Z,4.60
2019-03-10T05:14:59.578Z,4.30
2019-03-10T05:18:23.356Z,4.20
2019-03-10T05:21:47.158Z,4.20
2019-03-10T05:25:13.575Z,4.00
2019-03-10T05:28:42.678Z,3.90
2019-03-10T05:32:06.430Z,3.80
2019-03-10T05:35:30.234Z,3.60
2019-03-10T05:38:54.255Z,3.50
2019-03-10T05:42:18.137Z,3.40
2019-03-10T05:45:41.978Z,3.20
2019-03-10T05:49:05.657Z,3.10
2019-03-10T05:52:29.574Z,3.00
2019-03-10T05:55:53.477Z,3.00
2019-03-10T05:59:17.183Z,3.00
2019-03-10T06:02:40.916Z,3.00
2019-03-10T06:06:04.613Z,3.00
2019-03-10T06:09:28.415Z,3.10
2019-03-10T06:12:52.408Z,3.10
2019-03-10T06:16:16.185Z,3.20
2019-03-10T06:19:39.932Z,3.30
2019-03-10T06:23:03.728Z,3.40
2019-03-10T06:26:27.473Z,3.60
2019-03-10T06:29:52.297Z,3.70
2019-03-10T06:33:16.151Z,3.50
2019-03-10T06:36:39.977Z,3.50
2019-03-10T06:40:06.088Z,3.60
2019-03-10T06:43:30.003Z,3.60
2019-03-10T06:46:53.964Z,3.90
2019-03-10T06:50:17.801Z,4.70
2019-03-10T06:53:42.603Z,6.60
2019-03-10T06:57:06.343Z,10.00
2019-03-10T07:00:30.976Z,11.20
2019-03-10T07:03:54.640Z,11.80
2019-03-10T07:07:18.720Z,11.20
2019-03-10T07:10:42.438Z,11.20
2019-03-10T07:14:06.218Z,11.40
2019-03-10T07:17:30.696Z,12.10
2019-03-10T07:20:57.632Z,13.30
2019-03-10T07:24:20.901Z,12.50
2019-03-10T07:27:46.846Z,12.10
2019-03-10T07:31:15.433Z,12.20
2019-03-10T07:34:43.881Z,13.60
2019-03-10T07:38:09.537Z,13.50
2019-03-10T07:41:37.725Z,12.30
2019-03-10T07:45:05.900Z,13.80
2019-03-10T07:48:34.188Z,13.50
2019-03-10T07:52:19.747Z,13.70
2019-03-10T07:55:41.777Z,12.60
2019-03-10T07:59:13.025Z,11.50
2019-03-10T08:02:38.580Z,12.80
2019-03-10T08:06:04.231Z,12.20
2019-03-10T08:09:29.772Z,12.30
2019-03-10T08:12:55.647Z,13.00
2019-03-10T08:16:28.797Z,13.90
2019-03-10T08:19:57.198Z,14.00
2019-03-10T08:23:28.852Z,14.60
2019-03-10T08:26:59.952Z,14.40
2019-03-10T08:30:29.155Z,13.80
2019-03-10T08:34:05.258Z,13.30
2019-03-10T08:37:31.453Z,10.30
2019-03-10T08:41:02.641Z,8.50
2019-03-10T08:44:46.443Z,10.10
2019-03-10T08:48:26.652Z,11.70
2019-03-10T08:51:54.965Z,13.30
2019-03-10T08:55:23.157Z,13.80
2019-03-10T08:59:03.323Z,14.70
2019-03-10T09:02:28.872Z,15.40
2019-03-10T09:05:54.492Z,16.10
2019-03-10T09:09:20.851Z,15.50
2019-03-10T09:12:52.350Z,16.40
2019-03-10T09:16:21.906Z,15.60
2019-03-10T09:20:03.090Z,14.30
2019-03-10T09:23:41.420Z,14.60
2019-03-10T09:27:06.829Z,16.50
2019-03-10T09:30:47.153Z,14.30
2019-03-10T09:34:18.109Z,11.10
2019-03-10T09:38:00.628Z,9.90
2019-03-10T09:41:34.912Z,10.70
2019-03-10T09:45:17.174Z,11.50
2019-03-10T09:48:57.599Z,12.70
2019-03-10T09:52:39.574Z,12.30
2019-03-10T09:56:17.243Z,10.90
2019-03-10T09:59:43.415Z,11.70
2019-03-10T10:03:25.579Z,13.60
2019-03-10T10:06:54.307Z,12.70
2019-03-10T10:10:22.716Z,11.30
2019-03-10T10:13:48.236Z,11.30
2019-03-10T10:17:16.401Z,10.70
2019-03-10T10:20:58.206Z,11.70
2019-03-10T10:24:29.297Z,12.80
2019-03-10T10:27:57.801Z,13.10
2019-03-10T10:31:26.193Z,12.30
2019-03-10T10:35:00.913Z,11.30
2019-03-10T10:38:42.966Z,10.50
2019-03-10T10:42:14.393Z,10.50
2019-03-10T10:45:40.022Z,10.90
2019-03-10T10:49:05.430Z,10.60
2019-03-10T10:52:47.605Z,10.40
2019-03-10T10:56:31.019Z,10.70
2019-03-10T10:59:56.498Z,10.70
2019-03-10T11:03:24.916Z,11.00
2019-03-10T11:06:50.270Z,11.80
2019-03-10T11:10:22.719Z,13.00
2019-03-10T11:14:00.618Z,12.60
2019-03-10T11:17:27.574Z,12.90
2019-03-10T11:20:53.048Z,12.20
2019-03-10T11:24:25.915Z,12.10
2019-03-10T11:27:51.657Z,10.80
2019-03-10T11:31:17.449Z,11.60
2019-03-10T11:34:42.964Z,12.10
2019-03-10T11:38:14.424Z,11.70
2019-03-10T11:41:42.077Z,11.50
2019-03-10T11:45:10.562Z,11.70
2019-03-10T11:48:42.213Z,11.20
2019-03-10T11:52:08.413Z,11.30
2019-03-10T11:55:42.762Z,10.40
2019-03-10T11:59:12.298Z,10.70
2019-03-10T12:02:56.164Z,11.10
2019-03-10T12:06:21.636Z,10.80
2019-03-10T12:09:45.566Z,11.40
2019-03-10T12:13:10.561Z,11.10
2019-03-10T12:16:34.809Z,10.70
2019-03-10T12:19:59.158Z,10.40
2019-03-10T12:23:24.566Z,10.40
2019-03-10T12:26:48.662Z,10.70
2019-03-10T12:30:14.795Z,11.80
2019-03-10T12:33:38.619Z,13.30
2019-03-10T12:37:02.519Z,13.50
2019-03-10T12:40:26.386Z,12.10
2019-03-10T12:43:50.172Z,11.80
2019-03-10T12:47:13.906Z,12.00
2019-03-10T12:50:38.073Z,10.70
2019-03-10T12:54:02.879Z,11.10
2019-03-10T12:57:26.683Z,11.50
2019-03-10T13:00:50.805Z,10.70
2019-03-10T13:04:14.611Z,10.70
2019-03-10T13:07:38.684Z,10.50
2019-03-10T13:11:02.624Z,10.90
2019-03-10T13:14:26.890Z,10.10
2019-03-10T13:17:51.068Z,9.70
2019-03-10T13:21:14.894Z,9.60
2019-03-10T13:24:38.816Z,9.60
2019-03-10T13:28:02.954Z,9.50
2019-03-10T13:31:26.864Z,9.40
2019-03-10T13:34:50.534Z,9.00
2019-03-10T13:38:14.672Z,9.00
2019-03-10T13:41:38.544Z,9.10
2019-03-10T13:45:02.633Z,8.60
2019-03-10T13:48:26.400Z,7.90
2019-03-10T13:51:50.160Z,7.80
2019-03-10T13:55:14.094Z,7.90
2019-03-10T13:58:38.017Z,8.00
2019-03-10T14:02:01.856Z,8.00
2019-03-10T14:05:28.143Z,8.00
2019-03-10T14:08:52.248Z,8.00
2019-03-10T14:12:16.195Z,7.90
2019-03-10T14:15:40.083Z,7.70
2019-03-10T14:19:03.998Z,7.40
2019-03-10T14:22:27.785Z,7.20
2019-03-10T14:25:51.736Z,7.30
2019-03-10T14:29:15.804Z,7.00
2019-03-10T14:32:40.593Z,6.90
2019-03-10T14:36:04.515Z,6.60
2019-03-10T14:39:28.297Z,6.60
2019-03-10T14:42:53.052Z,6.40
2019-03-10T14:46:17.281Z,6.40
2019-03-10T14:49:41.649Z,6.30
2019-03-10T14:53:05.861Z,6.30
2019-03-10T14:56:30.849Z,6.30
2019-03-10T14:59:55.271Z,6.30
2019-03-10T15:03:21.205Z,6.30
2019-03-10T15:06:45.468Z,6.20
2019-03-10T15:10:14.492Z,6.20
2019-03-10T15:13:38.699Z,6.10
2019-03-10T15:17:02.762Z,5.80
2019-03-10T15:20:26.593Z,5.70
2019-03-10T15:23:50.385Z,5.80
2019-03-10T15:27:23.038Z,5.70
2019-03-10T15:30:39.843Z,5.60
2019-03-10T15:34:03.665Z,5.60
2019-03-10T15:37:27.633Z,5.50
2019-03-10T15:40:51.331Z,5.50
2019-03-10T15:44:15.547Z,5.50
2019-03-10T15:47:39.441Z,5.50
2019-03-10T15:51:03.455Z,5.50
2019-03-10T15:54:27.575Z,5.50
2019-03-10T15:57:51.540Z,5.40
2019-03-10T16:01:15.533Z,5.30
2019-03-10T16:04:40.112Z,5.20
2019-03-10T16:08:04.169Z,5.10
2019-03-10T16:11:28.471Z,5.10
2019-03-10T16:14:52.272Z,5.00
2019-03-10T16:18:16.286Z,5.00
2019-03-10T16:21:40.251Z,4.90
2019-03-10T16:25:06.644Z,4.90
2019-03-10T16:28:30.578Z,4.80
2019-03-10T16:31:54.595Z,4.80
2019-03-10T16:35:21.975Z,4.80
2019-03-10T16:38:44.984Z,4.70
2019-03-10T16:42:09.323Z,4.70
2019-03-10T16:45:33.055Z,4.60
2019-03-10T16:48:57.420Z,4.60
2019-03-10T16:52:21.248Z,4.60
2019-03-10T16:55:45.106Z,4.60
2019-03-10T16:59:08.849Z,4.50
2019-03-10T17:02:32.715Z,4.50
2019-03-10T17:05:57.121Z,4.50
2019-03-10T17:09:21.091Z,4.40
2019-03-10T17:12:45.134Z,4.40
2019-03-10T17:16:09.000Z,4.40
2019-03-10T17:19:32.744Z,4.30
2019-03-10T17:22:56.553Z,4.30
2019-03-10T17:26:20.356Z,4.30
2019-03-10T17:29:44.932Z,4.20
2019-03-10T17:33:08.760Z,4.30
2019-03-10T17:36:32.556Z,4.30
2019-03-10T17:39:56.504Z,4.20
2019-03-10T17:43:20.399Z,4.20
2019-03-10T17:46:44.589Z,4.20
2019-03-10T17:50:09.931Z,4.20
2019-03-10T17:53:33.725Z,4.20
2019-03-10T17:56:58.126Z,4.20
2019-03-10T18:00:23.919Z,4.20
2019-03-10T18:03:48.281Z,4.20
2019-03-10T18:07:12.107Z,4.20
2019-03-10T18:10:35.994Z,4.10
2019-03-10T18:14:00.749Z,4.20
2019-03-10T18:17:24.724Z,4.10
2019-03-10T18:20:48.708Z,4.10
2019-03-10T18:24:15.342Z,4.10
2019-03-10T18:27:39.204Z,4.20
2019-03-10T18:31:03.394Z,4.20
2019-03-10T18:34:27.542Z,4.10
2019-03-10T18:37:54.783Z,4.20
2019-03-10T18:41:18.656Z,4.20
2019-03-10T18:44:42.629Z,4.20
2019-03-10T18:48:06.596Z,4.20
2019-03-10T18:51:30.494Z,4.20
2019-03-10T18:54:54.235Z,4.20
2019-03-10T18:58:18.032Z,4.30
2019-03-10T19:01:42.065Z,4.30
2019-03-10T19:05:07.091Z,4.30
2019-03-10T19:08:30.890Z,4.30
2019-03-10T19:11:54.683Z,4.30
2019-03-10T19:15:22.444Z,4.30
2019-03-10T19:18:46.747Z,4.30
2019-03-10T19:22:10.650Z,4.30
2019-03-10T19:25:34.538Z,4.30
2019-03-10T19:28:59.411Z,4.30
2019-03-10T19:32:23.437Z,4.30
2019-03-10T19:35:51.267Z,4.30
2019-03-10T19:39:15.278Z,4.40
2019-03-10T19:42:39.062Z,4.40
2019-03-10T19:46:03.043Z,4.40
2019-03-10T19:49:27.096Z,4.40
2019-03-10T19:52:51.136Z,4.50
2019-03-10T19:56:15.356Z,4.50
2019-03-10T19:59:39.261Z,4.50
2019-03-10T20:03:03.846Z,4.60
2019-03-10T20:06:27.759Z,4.60
2019-03-10T20:09:52.072Z,4.70
2019-03-10T20:13:15.891Z,4.80
2019-03-10T20:16:39.731Z,4.80
2019-03-10T20:20:04.463Z,4.90
2019-03-10T20:23:28.224Z,4.90
2019-03-10T20:26:52.856Z,5.00
2019-03-10T20:30:20.835Z,5.10
2019-03-10T20:33:44.669Z,5.20
2019-03-10T20:37:09.398Z,5.30
2019-03-10T20:40:33.180Z,5.40
2019-03-10T20:43:57.102Z,5.40
2019-03-10T20:47:20.981Z,5.40
2019-03-10T20:50:45.486Z,5.50
2019-03-10T20:54:09.457Z,5.50
2019-03-10T20:57:33.334Z,5.70
2019-03-10T21:00:57.276Z,5.80
2019-03-10T21:04:22.852Z,5.80
2019-03-10T21:07:47.301Z,5.90
2019-03-10T21:11:12.520Z,6.00
2019-03-10T21:14:36.603Z,6.10
2019-03-10T21:18:00.597Z,6.20
2019-03-10T21:21:25.190Z,6.20
2019-03-10T21:24:52.779Z,6.30
2019-03-10T21:28:16.728Z,6.40
2019-03-10T21:31:41.763Z,6.50
2019-03-10T21:35:16.870Z,6.60
2019-03-10T21:38:33.428Z,6.80
2019-03-10T21:41:57.274Z,6.90
2019-03-10T21:45:22.288Z,7.00
2019-03-10T21:48:46.878Z,7.10
2019-03-10T21:52:10.802Z,7.10
2019-03-10T21:55:34.684Z,7.10
2019-03-10T21:58:58.456Z,7.10
2019-03-10T22:02:22.326Z,7.00
2019-03-10T22:05:46.310Z,7.00
2019-03-10T22:09:10.135Z,7.00
2019-03-10T22:12:33.860Z,7.00
2019-03-10T22:15:57.741Z,7.00
2019-03-10T22:19:22.981Z,7.00
2019-03-10T22:22:49.223Z,7.10
2019-03-10T22:26:12.463Z,7.10
2019-03-10T22:29:36.294Z,7.00
2019-03-10T22:33:00.083Z,7.00
2019-03-10T22:36:23.866Z,7.10
2019-03-10T22:39:47.901Z,7.20
2019-03-10T22:43:11.659Z,7.20
2019-03-10T22:46:35.433Z,7.20
2019-03-10T22:49:59.204Z,7.20
2019-03-10T22:53:23.008Z,7.30
2019-03-10T22:56:46.774Z,7.20
2019-03-10T23:00:47.265Z,7.30
2019-03-10T23:04:11.106Z,7.30
2019-03-10T23:07:34.666Z,7.20
2019-03-10T23:10:58.458Z,7.10
2019-03-10T23:14:22.293Z,7.20
2019-03-10T23:17:46.121Z,7.10
2019-03-10T23:21:10.051Z,7.10
2019-03-10T23:24:34.039Z,7.10
2019-03-10T23:27:58.005Z,7.00
2019-03-10T23:31:22.216Z,7.00
2019-03-10T23:34:46.021Z,7.10
2019-03-10T23:38:09.864Z,7.00
2019-03-10T23:41:33.733Z,7.00
2019-03-10T23:44:57.539Z,7.20
2019-03-10T23:48:21.333Z,7.10
2019-03-10T23:51:45.791Z,7.10
2019-03-10T23:55:11.735Z,7.20
2019-03-10T23:58:35.768Z,7.20
